Time;durP1;ratioP1;P1;durP2;ratioP2;P2;SDS_P1;SDS_P2;PMS_P1;PMS_P2;Temp;Humidity;BMP_temperature;BMP_pressure;BME280_temperature;BME280_humidity;BME280_pressure;Samples;Min_cycle;Max_cycle;Signal;HPM_P1;HPM_P2
2022/02/13 00:02:05;;;;;;;;;;;2.40;84.20;;;;;;5033999;28;19925;-74
2022/02/13 00:04:31;;;;;;;;;;;2.40;84.40;;;;;;5035163;28;19931;-73
2022/02/13 00:06:58;;;;;;;;;;;2.40;85.40;;;;;;5044127;28;20028;-73
2022/02/13 00:09:28;;;;;;;;;;;2.30;84.80;;;;;;5031912;28;20020;-73
2022/02/13 00:11:54;;;;;;;;;;;2.30;84.90;;;;;;5027461;28;19925;-73
2022/02/13 00:14:21;;;;;;;;;;;2.30;85.10;;;;;;5021924;28;20289;-73
2022/02/13 00:16:48;;;;;;;;;;;2.30;85.30;;;;;;5026448;28;20406;-73
2022/02/13 00:19:14;;;;;;;;;;;2.30;85.20;;;;;;5031176;28;20307;-73
2022/02/13 00:21:41;;;;;;;;;;;2.30;85.20;;;;;;5031843;28;20629;-73
2022/02/13 00:24:08;;;;;;;;;;;2.30;85.80;;;;;;5037678;28;19925;-73
2022/02/13 00:26:36;;;;;;;;;;;2.30;85.10;;;;;;5025184;28;19932;-73
2022/02/13 00:29:03;;;;;;;;;;;2.30;85.40;;;;;;5036353;28;20584;-73
2022/02/13 00:31:30;;;;;;;;;;;2.30;85.40;;;;;;5036354;28;19971;-73
2022/02/13 00:33:57;;;;;;;;;;;2.30;85.70;;;;;;5037139;28;20368;-73
2022/02/13 00:36:23;;;;;;;;;;;2.20;85.70;;;;;;5026873;28;20135;-73
2022/02/13 00:38:50;;;;;;;;;;;2.30;86.60;;;;;;5029527;28;19929;-73
2022/02/13 00:41:17;;;;;;;;;;;2.30;85.90;;;;;;5031726;28;20400;-73
2022/02/13 00:43:45;;;;;;;;;;;2.20;85.80;;;;;;5031828;28;19925;-74
2022/02/13 00:46:11;;;;;;;;;;;2.20;86.10;;;;;;5028116;28;19932;-73
2022/02/13 00:48:38;;;;;;;;;;;2.20;86.20;;;;;;5029984;28;19925;-73
2022/02/13 00:51:05;;;;;;;;;;;2.20;86.50;;;;;;5026674;28;20302;-73
2022/02/13 00:53:31;;;;;;;;;;;2.10;86.70;;;;;;5028014;28;20307;-73
2022/02/13 00:55:58;;;;;;;;;;;2.10;87.10;;;;;;5027980;28;19925;-74
2022/02/13 00:58:28;;;;;;;;;;;2.10;87.50;;;;;;5029625;28;20626;-74
2022/02/13 01:00:56;;;;;;;;;;;2.00;87.50;;;;;;5033099;28;19952;-73
2022/02/13 01:03:23;;;;;;;;;;;2.00;87.80;;;;;;5028697;28;19929;-73
2022/02/13 01:05:49;;;;;;;;;;;2.00;88.00;;;;;;5024669;28;19933;-74
2022/02/13 01:08:16;;;;;;;;;;;2.00;88.10;;;;;;5026211;28;19925;-74
2022/02/13 01:10:43;;;;;;;;;;;2.00;88.20;;;;;;5032701;28;19925;-74
2022/02/13 01:13:09;;;;;;;;;;;2.00;88.20;;;;;;5023318;28;19929;-74
2022/02/13 01:15:36;;;;;;;;;;;2.00;88.20;;;;;;5028358;28;19925;-74
2022/02/13 01:18:04;;;;;;;;;;;2.10;88.10;;;;;;5041284;28;19931;-74
2022/02/13 01:20:30;;;;;;;;;;;2.00;88.00;;;;;;5029937;28;19929;-76
2022/02/13 01:22:57;;;;;;;;;;;2.00;88.30;;;;;;5037962;28;19932;-77
2022/02/13 01:25:24;;;;;;;;;;;2.00;88.40;;;;;;5033463;28;19924;-76
2022/02/13 01:27:51;;;;;;;;;;;2.00;88.20;;;;;;5030063;28;19952;-76
2022/02/13 01:30:17;;;;;;;;;;;2.00;88.30;;;;;;5029953;28;19925;-76
2022/02/13 01:32:44;;;;;;;;;;;2.00;88.10;;;;;;5031336;28;20016;-76
2022/02/13 01:35:12;;;;;;;;;;;2.00;88.30;;;;;;5034009;28;20311;-76
2022/02/13 01:37:39;;;;;;;;;;;2.00;88.40;;;;;;5031112;28;20037;-76
2022/02/13 01:40:06;;;;;;;;;;;2.10;88.20;;;;;;5028865;28;19925;-76
2022/02/13 01:42:33;;;;;;;;;;;2.00;88.00;;;;;;5035563;28;19924;-76
2022/02/13 01:44:59;;;;;;;;;;;2.00;88.10;;;;;;5028980;28;19935;-76
2022/02/13 01:47:29;;;;;;;;;;;2.00;88.00;;;;;;5028841;28;19925;-76
2022/02/13 01:49:55;;;;;;;;;;;2.00;88.10;;;;;;5030476;28;20027;-75
2022/02/13 01:52:23;;;;;;;;;;;2.00;88.00;;;;;;5033605;28;19925;-76
2022/02/13 01:54:50;;;;;;;;;;;2.00;88.30;;;;;;5027809;28;19930;-76
2022/02/13 01:57:17;;;;;;;;;;;2.00;88.40;;;;;;5033042;28;19932;-76
2022/02/13 01:59:43;;;;;;;;;;;1.90;88.40;;;;;;5027406;28;20276;-76
2022/02/13 02:02:10;;;;;;;;;;;1.90;88.70;;;;;;5039073;28;20478;-76
2022/02/13 02:04:37;;;;;;;;;;;1.90;88.60;;;;;;5035221;28;20396;-76
2022/02/13 02:07:04;;;;;;;;;;;1.90;88.50;;;;;;5033580;28;19925;-75
2022/02/13 02:09:32;;;;;;;;;;;1.90;88.90;;;;;;5031003;28;19925;-75
2022/02/13 02:12:02;;;;;;;;;;;1.90;88.90;;;;;;5025545;28;19925;-76
2022/02/13 02:14:29;;;;;;;;;;;1.90;89.00;;;;;;5025426;28;19929;-76
2022/02/13 02:16:55;;;;;;;;;;;1.90;89.10;;;;;;5028222;28;19933;-76
2022/02/13 02:19:22;;;;;;;;;;;1.90;89.20;;;;;;5030425;28;19933;-76
2022/02/13 02:21:49;;;;;;;;;;;1.90;89.50;;;;;;5032703;28;20019;-76
2022/02/13 02:24:17;;;;;;;;;;;1.90;89.30;;;;;;5033012;28;19924;-75
2022/02/13 02:26:45;;;;;;;;;;;2.00;89.30;;;;;;5022168;28;19925;-76
2022/02/13 02:29:11;;;;;;;;;;;2.00;89.00;;;;;;5027214;28;19931;-76
2022/02/13 02:31:38;;;;;;;;;;;2.00;89.00;;;;;;5039375;28;19925;-77
2022/02/13 02:34:05;;;;;;;;;;;1.90;89.10;;;;;;5031960;28;19929;-75
2022/02/13 02:36:31;;;;;;;;;;;2.00;89.10;;;;;;5033384;28;19925;-76
2022/02/13 02:38:58;;;;;;;;;;;2.00;89.30;;;;;;5027790;28;20402;-76
2022/02/13 02:41:26;;;;;;;;;;;2.00;89.10;;;;;;5037660;28;20016;-76
2022/02/13 02:43:53;;;;;;;;;;;2.00;89.10;;;;;;5030485;28;19932;-77
2022/02/13 02:46:19;;;;;;;;;;;2.00;89.20;;;;;;5030736;28;20185;-76
2022/02/13 02:48:46;;;;;;;;;;;1.90;89.60;;;;;;5038635;28;20366;-76
2022/02/13 02:51:13;;;;;;;;;;;2.00;89.80;;;;;;5034013;28;20016;-76
2022/02/13 02:53:42;;;;;;;;;;;2.00;89.90;;;;;;5024537;28;19929;-75
2022/02/13 02:56:09;;;;;;;;;;;2.00;89.90;;;;;;5043701;28;19924;-75
2022/02/13 02:58:37;;;;;;;;;;;2.00;90.00;;;;;;5033798;28;19932;-75
2022/02/13 03:01:04;;;;;;;;;;;1.90;90.40;;;;;;5035936;28;19925;-75
2022/02/13 03:03:32;;;;;;;;;;;1.90;90.20;;;;;;5028576;28;19972;-75
2022/02/13 03:05:59;;;;;;;;;;;1.80;90.40;;;;;;5031870;28;19929;-75
2022/02/13 03:08:26;;;;;;;;;;;1.80;90.60;;;;;;5032345;28;20406;-75
2022/02/13 03:10:53;;;;;;;;;;;1.80;90.60;;;;;;5036979;28;19935;-75
2022/02/13 03:13:21;;;;;;;;;;;1.80;90.70;;;;;;5044418;28;19931;-75
2022/02/13 03:15:49;;;;;;;;;;;1.90;90.70;;;;;;5030522;28;19971;-78
2022/02/13 03:18:17;;;;;;;;;;;1.90;90.60;;;;;;5033595;28;19933;-76
2022/02/13 03:20:44;;;;;;;;;;;1.90;90.60;;;;;;5037922;28;20006;-76
2022/02/13 03:23:11;;;;;;;;;;;1.90;90.50;;;;;;5033186;28;19925;-76
2022/02/13 03:25:37;;;;;;;;;;;1.90;90.60;;;;;;5031477;28;19987;-75
2022/02/13 03:28:04;;;;;;;;;;;1.80;90.60;;;;;;5032646;28;19955;-75
2022/02/13 03:30:31;;;;;;;;;;;1.80;90.70;;;;;;5028788;28;19932;-75
2022/02/13 03:32:59;;;;;;;;;;;1.90;90.80;;;;;;5033594;28;19925;-75
2022/02/13 03:35:26;;;;;;;;;;;1.90;90.80;;;;;;5027526;28;19925;-76
2022/02/13 03:37:52;;;;;;;;;;;1.80;90.80;;;;;;5033584;28;19931;-75
2022/02/13 03:40:19;;;;;;;;;;;1.80;90.90;;;;;;5031606;28;19969;-76
2022/02/13 03:42:46;;;;;;;;;;;1.80;91.00;;;;;;5028964;28;19925;-75
2022/02/13 03:45:13;;;;;;;;;;;1.70;91.20;;;;;;5034091;28;19925;-76
2022/02/13 03:47:40;;;;;;;;;;;1.70;91.30;;;;;;5034679;28;20027;-75
2022/02/13 03:50:09;;;;;;;;;;;1.70;91.50;;;;;;5033475;28;19932;-76
2022/02/13 03:52:35;;;;;;;;;;;1.70;91.90;;;;;;5033037;28;20319;-75
2022/02/13 03:55:03;;;;;;;;;;;1.70;91.70;;;;;;5024151;28;19931;-76
2022/02/13 03:57:30;;;;;;;;;;;1.80;91.90;;;;;;5031344;28;19925;-75
2022/02/13 03:59:57;;;;;;;;;;;1.80;91.80;;;;;;5037276;28;19935;-75
2022/02/13 04:02:23;;;;;;;;;;;1.80;91.90;;;;;;5030582;28;19925;-75
2022/02/13 04:04:50;;;;;;;;;;;1.80;91.80;;;;;;5030512;28;20004;-75
2022/02/13 04:07:18;;;;;;;;;;;1.80;91.80;;;;;;5027876;28;19931;-75
2022/02/13 04:09:45;;;;;;;;;;;1.90;91.90;;;;;;5028093;28;19925;-77
2022/02/13 04:12:11;;;;;;;;;;;1.90;91.90;;;;;;5049887;28;19925;-76
2022/02/13 04:14:38;;;;;;;;;;;1.90;91.90;;;;;;5036086;28;20011;-76
2022/02/13 04:17:05;;;;;;;;;;;1.90;91.90;;;;;;5027983;28;20388;-76
2022/02/13 04:19:31;;;;;;;;;;;1.90;91.90;;;;;;5029041;28;19925;-77
2022/02/13 04:21:58;;;;;;;;;;;2.00;91.90;;;;;;5037411;28;19948;-76
2022/02/13 04:24:26;;;;;;;;;;;2.00;91.80;;;;;;5034018;28;20395;-76
2022/02/13 04:26:53;;;;;;;;;;;2.00;91.90;;;;;;5029360;28;19925;-76
2022/02/13 04:29:20;;;;;;;;;;;2.00;91.80;;;;;;5029483;28;19924;-76
2022/02/13 04:31:47;;;;;;;;;;;2.00;91.80;;;;;;5033131;28;19941;-76
2022/02/13 04:34:13;;;;;;;;;;;2.10;91.90;;;;;;5029283;28;20013;-76
2022/02/13 04:36:40;;;;;;;;;;;2.10;91.80;;;;;;5025493;28;19928;-76
2022/02/13 04:39:07;;;;;;;;;;;2.10;91.80;;;;;;5037693;28;19925;-76
2022/02/13 04:41:35;;;;;;;;;;;2.20;91.70;;;;;;5029784;28;19941;-76
2022/02/13 04:44:02;;;;;;;;;;;2.10;91.70;;;;;;5032678;28;19929;-76
2022/02/13 04:46:28;;;;;;;;;;;2.10;91.70;;;;;;5042534;28;20376;-77
2022/02/13 04:48:55;;;;;;;;;;;2.10;91.80;;;;;;5031442;28;19929;-76
2022/02/13 04:51:22;;;;;;;;;;;2.10;91.90;;;;;;5038762;28;19925;-76
2022/02/13 04:53:48;;;;;;;;;;;2.00;92.00;;;;;;5034240;28;19933;-76
2022/02/13 04:56:15;;;;;;;;;;;2.00;92.00;;;;;;5038448;28;21977;-76
2022/02/13 04:58:43;;;;;;;;;;;2.00;92.10;;;;;;5029234;28;19925;-75
2022/02/13 05:01:10;;;;;;;;;;;2.00;92.10;;;;;;5035405;28;20303;-76
2022/02/13 05:03:37;;;;;;;;;;;2.00;92.10;;;;;;5031578;28;19933;-76
2022/02/13 05:06:04;;;;;;;;;;;2.00;92.20;;;;;;5043974;28;20443;-76
2022/02/13 05:08:30;;;;;;;;;;;2.00;92.10;;;;;;5023608;28;19925;-76
2022/02/13 05:10:57;;;;;;;;;;;2.00;92.10;;;;;;5028199;28;19947;-76
2022/02/13 05:13:24;;;;;;;;;;;2.00;92.20;;;;;;5033414;28;20388;-75
2022/02/13 05:15:51;;;;;;;;;;;2.00;92.30;;;;;;5037869;28;19929;-76
2022/02/13 05:18:18;;;;;;;;;;;2.00;92.30;;;;;;5030679;28;19933;-75
2022/02/13 05:20:45;;;;;;;;;;;2.00;92.20;;;;;;5039659;28;19925;-76
2022/02/13 05:23:11;;;;;;;;;;;2.00;92.20;;;;;;5032611;28;19947;-76
2022/02/13 05:25:38;;;;;;;;;;;2.00;92.20;;;;;;5025517;28;20375;-76
2022/02/13 05:28:05;;;;;;;;;;;2.00;92.20;;;;;;5028448;28;19925;-76
2022/02/13 05:30:31;;;;;;;;;;;2.00;92.30;;;;;;5036036;28;19925;-75
2022/02/13 05:32:59;;;;;;;;;;;2.00;92.30;;;;;;5039881;28;19971;-75
2022/02/13 05:35:27;;;;;;;;;;;2.00;92.30;;;;;;5034925;28;19925;-76
2022/02/13 05:37:54;;;;;;;;;;;2.00;92.40;;;;;;5036541;28;19991;-76
2022/02/13 05:40:20;;;;;;;;;;;2.00;92.40;;;;;;5032878;28;19925;-75
2022/02/13 05:42:47;;;;;;;;;;;2.00;92.30;;;;;;5039557;28;20012;-75
2022/02/13 05:45:14;;;;;;;;;;;2.10;92.30;;;;;;5028852;28;19956;-75
2022/02/13 05:47:41;;;;;;;;;;;2.00;92.30;;;;;;5028531;28;19929;-76
2022/02/13 05:50:10;;;;;;;;;;;2.00;92.40;;;;;;5031002;28;19988;-76
2022/02/13 05:52:37;;;;;;;;;;;2.00;92.30;;;;;;5028450;28;19926;-74
2022/02/13 05:55:03;;;;;;;;;;;2.00;92.30;;;;;;5033558;28;20020;-74
2022/02/13 05:57:30;;;;;;;;;;;1.90;92.40;;;;;;5033323;28;20043;-74
2022/02/13 05:59:57;;;;;;;;;;;1.90;92.40;;;;;;5029838;28;19925;-75
2022/02/13 06:02:23;;;;;;;;;;;1.90;92.40;;;;;;5027304;28;20008;-75
2022/02/13 06:04:50;;;;;;;;;;;2.00;92.40;;;;;;5027995;28;19933;-75
2022/02/13 06:07:18;;;;;;;;;;;1.90;92.40;;;;;;5026383;28;20388;-75
2022/02/13 06:09:45;;;;;;;;;;;2.00;92.50;;;;;;5030227;28;19925;-75
2022/02/13 06:12:12;;;;;;;;;;;2.00;92.50;;;;;;5031849;28;19948;-75
2022/02/13 06:14:38;;;;;;;;;;;2.00;92.60;;;;;;5038423;28;19925;-75
2022/02/13 06:17:05;;;;;;;;;;;2.00;92.50;;;;;;5031442;28;19931;-76
2022/02/13 06:19:32;;;;;;;;;;;2.10;92.50;;;;;;5033604;28;19926;-74
2022/02/13 06:21:58;;;;;;;;;;;2.10;92.40;;;;;;5047380;28;19924;-75
2022/02/13 06:24:26;;;;;;;;;;;2.10;92.40;;;;;;5034900;28;19925;-76
2022/02/13 06:26:53;;;;;;;;;;;2.10;92.30;;;;;;5044411;28;19925;-75
2022/02/13 06:29:19;;;;;;;;;;;2.10;92.40;;;;;;5039224;28;20016;-74
2022/02/13 06:31:46;;;;;;;;;;;2.10;92.40;;;;;;5045580;28;19947;-75
2022/02/13 06:34:13;;;;;;;;;;;2.10;92.40;;;;;;5031955;28;19947;-75
2022/02/13 06:36:39;;;;;;;;;;;2.10;92.40;;;;;;5031526;28;19925;-75
2022/02/13 06:39:06;;;;;;;;;;;2.10;92.30;;;;;;5035477;28;19987;-76
2022/02/13 06:41:34;;;;;;;;;;;2.10;92.30;;;;;;5036079;28;19925;-77
2022/02/13 06:44:01;;;;;;;;;;;2.10;92.50;;;;;;5036224;28;20292;-76
2022/02/13 06:46:27;;;;;;;;;;;2.10;92.40;;;;;;5032770;28;19925;-77
2022/02/13 06:48:54;;;;;;;;;;;2.10;92.40;;;;;;5041374;28;19935;-77
2022/02/13 06:51:21;;;;;;;;;;;2.10;92.40;;;;;;5031443;28;19925;-77
2022/02/13 06:53:47;;;;;;;;;;;2.10;92.30;;;;;;5041641;28;19935;-75
2022/02/13 06:56:14;;;;;;;;;;;2.20;92.20;;;;;;5033996;28;19926;-74
2022/02/13 06:58:42;;;;;;;;;;;2.20;92.20;;;;;;5033265;28;20291;-74
2022/02/13 07:01:09;;;;;;;;;;;2.20;92.30;;;;;;5038454;28;20376;-75
2022/02/13 07:03:36;;;;;;;;;;;2.30;92.30;;;;;;5032600;28;19933;-75
2022/02/13 07:06:02;;;;;;;;;;;2.30;92.20;;;;;;5030851;28;19925;-75
2022/02/13 07:08:29;;;;;;;;;;;2.40;91.90;;;;;;5033305;28;19931;-75
2022/02/13 07:10:56;;;;;;;;;;;2.50;91.70;;;;;;5029678;28;19925;-75
2022/02/13 07:13:23;;;;;;;;;;;2.50;91.50;;;;;;5037846;28;19931;-75
2022/02/13 07:15:51;;;;;;;;;;;2.60;91.40;;;;;;5034853;28;19925;-74
2022/02/13 07:18:17;;;;;;;;;;;2.60;91.10;;;;;;5027944;28;19929;-74
2022/02/13 07:20:44;;;;;;;;;;;2.60;91.10;;;;;;5032184;28;20012;-75
2022/02/13 07:23:11;;;;;;;;;;;2.70;91.00;;;;;;5033348;28;19932;-75
2022/02/13 07:25:38;;;;;;;;;;;2.70;90.90;;;;;;5031906;28;19925;-75
2022/02/13 07:28:58;;;;;;;;;;;2.70;90.80;;;;;;5035850;28;19947;-75
2022/02/13 07:30:53;;;;;;;;;;;2.70;90.60;;;;;;5028863;28;19933;-75
2022/02/13 07:33:20;;;;;;;;;;;2.80;90.30;;;;;;5032159;28;19925;-75
2022/02/13 07:35:46;;;;;;;;;;;2.90;90.10;;;;;;5034095;28;20211;-74
2022/02/13 07:38:13;;;;;;;;;;;2.90;90.00;;;;;;5038634;28;19993;-76
2022/02/13 07:40:40;;;;;;;;;;;2.90;89.80;;;;;;5028805;28;19925;-77
2022/02/13 07:43:06;;;;;;;;;;;2.90;89.80;;;;;;5037778;28;19931;-74
2022/02/13 07:45:33;;;;;;;;;;;3.00;89.70;;;;;;5034092;28;19932;-74
2022/02/13 07:48:01;;;;;;;;;;;2.90;89.80;;;;;;5033438;28;19936;-74
2022/02/13 07:50:28;;;;;;;;;;;3.00;89.90;;;;;;5036695;28;20020;-75
2022/02/13 07:52:54;;;;;;;;;;;3.00;90.00;;;;;;5032507;28;19935;-70
2022/02/13 07:55:21;;;;;;;;;;;3.00;89.90;;;;;;5031435;28;20319;-70
2022/02/13 07:57:48;;;;;;;;;;;3.00;89.90;;;;;;5031735;28;19931;-70
2022/02/13 08:00:15;;;;;;;;;;;3.00;90.00;;;;;;5029413;28;19940;-70
2022/02/13 08:02:42;;;;;;;;;;;3.00;90.00;;;;;;5027439;28;19929;-71
2022/02/13 08:05:10;;;;;;;;;;;3.00;90.10;;;;;;5025042;28;20288;-70
2022/02/13 08:07:43;;;;;;;;;;;3.10;90.10;;;;;;5033149;28;19925;-70
2022/02/13 08:10:10;;;;;;;;;;;3.10;90.10;;;;;;5034017;28;19925;-70
2022/02/13 08:12:37;;;;;;;;;;;3.10;90.20;;;;;;5030482;28;19929;-71
2022/02/13 08:15:04;;;;;;;;;;;3.20;90.20;;;;;;5030983;28;20023;-70
2022/02/13 08:17:30;;;;;;;;;;;3.20;90.20;;;;;;5031060;28;19925;-71
2022/02/13 08:19:58;;;;;;;;;;;3.20;90.20;;;;;;5027475;28;19929;-72
2022/02/13 08:22:26;;;;;;;;;;;3.30;90.20;;;;;;5028248;28;19925;-71
2022/02/13 08:24:53;;;;;;;;;;;3.30;90.10;;;;;;5033591;28;19976;-71
2022/02/13 08:27:19;;;;;;;;;;;3.50;90.00;;;;;;5026676;28;20355;-71
2022/02/13 08:29:47;;;;;;;;;;;3.80;89.30;;;;;;5029913;28;19939;-71
2022/02/13 08:32:13;;;;;;;;;;;4.50;88.70;;;;;;5030247;28;19932;-72
2022/02/13 08:34:40;;;;;;;;;;;5.20;85.10;;;;;;5040362;28;19925;-71
2022/02/13 08:37:07;;;;;;;;;;;5.60;81.20;;;;;;5032406;28;19925;-71
2022/02/13 08:39:35;;;;;;;;;;;6.00;77.60;;;;;;5032863;28;19925;-72
2022/02/13 08:42:02;;;;;;;;;;;6.20;74.90;;;;;;5033819;28;19925;-73
2022/02/13 08:44:28;;;;;;;;;;;6.50;73.50;;;;;;5035404;28;20478;-73
2022/02/13 08:46:55;;;;;;;;;;;6.80;70.80;;;;;;5032260;28;19934;-70
2022/02/13 08:49:22;;;;;;;;;;;6.90;68.20;;;;;;5040410;28;19924;-74
2022/02/13 08:51:48;;;;;;;;;;;6.80;67.30;;;;;;5034864;28;20035;-71
2022/02/13 08:54:15;;;;;;;;;;;6.80;67.80;;;;;;5038749;28;19926;-70
2022/02/13 08:56:43;;;;;;;;;;;7.00;66.10;;;;;;5026656;28;19933;-73
2022/02/13 08:59:10;;;;;;;;;;;6.70;66.60;;;;;;5032406;28;19925;-71
2022/02/13 09:01:36;;;;;;;;;;;6.90;67.60;;;;;;5027943;28;19931;-71
2022/02/13 09:04:03;;;;;;;;;;;7.10;66.30;;;;;;5033797;28;20021;-72
2022/02/13 09:06:30;;;;;;;;;;;6.70;66.30;;;;;;5018118;28;19978;-70
2022/02/13 09:08:57;;;;;;;;;;;6.60;67.40;;;;;;5028974;28;20807;-71
2022/02/13 09:11:23;;;;;;;;;;;6.60;66.90;;;;;;5027174;28;19939;-71
2022/02/13 09:13:53;;;;;;;;;;;6.60;67.60;;;;;;5029485;28;20376;-72
2022/02/13 09:16:22;;;;;;;;;;;6.80;67.70;;;;;;5028120;28;22140;-71
2022/02/13 09:18:48;;;;;;;;;;;7.40;66.30;;;;;;5030764;28;20463;-71
2022/02/13 09:21:15;;;;;;;;;;;7.60;64.50;;;;;;5031816;28;20015;-72
2022/02/13 09:23:41;;;;;;;;;;;7.40;63.20;;;;;;5025383;28;19931;-72
2022/02/13 09:26:08;;;;;;;;;;;7.20;63.80;;;;;;5018575;28;19925;-72
2022/02/13 09:28:35;;;;;;;;;;;6.70;65.40;;;;;;5023408;28;19925;-69
2022/02/13 09:31:04;;;;;;;;;;;6.90;65.20;;;;;;5020987;28;19927;-70
2022/02/13 09:33:30;;;;;;;;;;;7.20;65.90;;;;;;5016109;28;20007;-73
2022/02/13 09:35:57;;;;;;;;;;;7.30;65.10;;;;;;5016913;28;19925;-70
2022/02/13 09:38:24;;;;;;;;;;;7.10;65.00;;;;;;5023944;28;19929;-70
2022/02/13 09:40:51;;;;;;;;;;;7.00;65.00;;;;;;5036749;28;20015;-69
2022/02/13 09:43:20;;;;;;;;;;;7.10;65.60;;;;;;5032102;28;20016;-69
2022/02/13 09:45:50;;;;;;;;;;;7.00;65.40;;;;;;5023815;28;19925;-69
2022/02/13 09:48:19;;;;;;;;;;;6.50;67.20;;;;;;5029062;28;19925;-69
2022/02/13 09:50:46;;;;;;;;;;;6.30;68.80;;;;;;5034477;28;19925;-69
2022/02/13 09:53:14;;;;;;;;;;;6.40;69.80;;;;;;5026902;28;19943;-69
2022/02/13 09:55:41;;;;;;;;;;;6.50;68.80;;;;;;5025763;28;20026;-69
2022/02/13 09:58:08;;;;;;;;;;;6.40;69.20;;;;;;5036209;28;19925;-69
2022/02/13 10:00:50;;;;;;;;;;;6.40;69.30;;;;;;5033613;28;19971;-69
2022/02/13 10:03:19;;;;;;;;;;;6.50;70.00;;;;;;5031844;28;19925;-69
2022/02/13 10:05:46;;;;;;;;;;;6.60;69.80;;;;;;5025809;28;19991;-69
2022/02/13 10:08:12;;;;;;;;;;;6.60;70.40;;;;;;5029403;28;19933;-72
2022/02/13 10:10:39;;;;;;;;;;;6.60;70.80;;;;;;5027924;28;19937;-69
2022/02/13 10:13:06;;;;;;;;;;;6.70;71.40;;;;;;5028928;28;19925;-69
2022/02/13 10:15:33;;;;;;;;;;;6.80;71.20;;;;;;5029716;28;19928;-69
2022/02/13 10:18:08;;;;;;;;;;;6.80;71.50;;;;;;5033326;28;19925;-69
2022/02/13 10:20:37;;;;;;;;;;;6.90;71.70;;;;;;5030000;28;20047;-70
2022/02/13 10:23:05;;;;;;;;;;;7.00;71.70;;;;;;5032009;28;19925;-71
2022/02/13 10:25:32;;;;;;;;;;;7.10;71.80;;;;;;5029865;28;20619;-70
2022/02/13 10:27:59;;;;;;;;;;;7.10;71.30;;;;;;5038555;28;19933;-70
2022/02/13 10:30:36;;;;;;;;;;;7.20;70.90;;;;;;5027227;28;20301;-70
2022/02/13 10:33:21;;;;;;;;;;;7.20;69.70;;;;;;5026332;28;19991;-70
2022/02/13 10:36:05;;;;;;;;;;;7.30;69.50;;;;;;5030668;28;20398;-70
2022/02/13 10:38:36;;;;;;;;;;;7.50;69.30;;;;;;5032415;28;19933;-70
2022/02/13 10:41:12;;;;;;;;;;;7.50;68.70;;;;;;5026854;28;20016;-70
2022/02/13 10:43:51;;;;;;;;;;;7.60;69.20;;;;;;5026964;28;19933;-70
2022/02/13 10:46:19;;;;;;;;;;;7.70;69.20;;;;;;5029183;28;19933;-74
2022/02/13 10:48:46;;;;;;;;;;;7.80;69.80;;;;;;5029795;28;20404;-69
2022/02/13 10:51:13;;;;;;;;;;;7.80;69.10;;;;;;5019221;28;20043;-70
2022/02/13 10:53:41;;;;;;;;;;;7.80;69.50;;;;;;5028272;28;20407;-69
2022/02/13 10:56:08;;;;;;;;;;;7.80;69.70;;;;;;5026012;28;20447;-74
2022/02/13 10:58:35;;;;;;;;;;;8.00;69.90;;;;;;5029530;28;20016;-70
2022/02/13 11:01:05;;;;;;;;;;;8.00;69.60;;;;;;5035473;28;20464;-74
2022/02/13 11:03:32;;;;;;;;;;;8.10;70.00;;;;;;5046686;28;20370;-70
2022/02/13 11:06:01;;;;;;;;;;;8.20;70.00;;;;;;5032372;28;20020;-70
2022/02/13 11:08:30;;;;;;;;;;;8.30;70.00;;;;;;5032144;28;19931;-72
2022/02/13 11:10:59;;;;;;;;;;;8.30;69.90;;;;;;5033432;28;19929;-71
2022/02/13 11:13:26;;;;;;;;;;;8.30;69.60;;;;;;5035129;28;19925;-71
2022/02/13 11:15:53;;;;;;;;;;;8.40;68.90;;;;;;5034600;28;20486;-71
2022/02/13 11:18:21;;;;;;;;;;;8.50;69.70;;;;;;5036918;28;20140;-71
2022/02/13 11:20:49;;;;;;;;;;;8.60;68.00;;;;;;5026716;28;19937;-71
2022/02/13 11:23:20;;;;;;;;;;;8.60;66.30;;;;;;5023022;28;20293;-70
2022/02/13 11:25:51;;;;;;;;;;;8.50;66.60;;;;;;5022226;28;20538;-71
2022/02/13 11:28:23;;;;;;;;;;;8.70;66.20;;;;;;5025935;28;19951;-70
2022/02/13 11:30:51;;;;;;;;;;;8.80;64.80;;;;;;5029697;28;19933;-71
2022/02/13 11:33:38;;;;;;;;;;;8.90;64.00;;;;;;5032657;28;20023;-71
2022/02/13 11:36:06;;;;;;;;;;;8.90;62.20;;;;;;5036968;28;19924;-70
2022/02/13 11:38:52;;;;;;;;;;;9.00;61.90;;;;;;5024018;28;19931;-70
2022/02/13 11:41:20;;;;;;;;;;;8.90;61.70;;;;;;5022670;28;20328;-75
2022/02/13 11:44:00;;;;;;;;;;;9.00;60.50;;;;;;5027220;28;19929;-74
2022/02/13 11:46:51;;;;;;;;;;;9.10;59.80;;;;;;5036032;28;20020;-75
2022/02/13 11:49:19;;;;;;;;;;;9.20;58.60;;;;;;5023781;28;19933;-76
2022/02/13 11:51:56;;;;;;;;;;;9.30;58.80;;;;;;5024620;28;20011;-73
2022/02/13 11:54:42;;;;;;;;;;;9.40;57.80;;;;;;5030101;28;19939;-74
2022/02/13 11:57:10;;;;;;;;;;;9.40;57.50;;;;;;5027401;28;21650;-75
2022/02/13 12:00:06;;;;;;;;;;;9.40;58.00;;;;;;5029560;28;19933;-75
2022/02/13 12:02:44;;;;;;;;;;;9.30;57.90;;;;;;5028170;28;20396;-74
2022/02/13 12:05:16;;;;;;;;;;;9.30;58.30;;;;;;5030296;28;19926;-74
2022/02/13 12:08:00;;;;;;;;;;;9.40;58.50;;;;;;5034336;28;19929;-75
2022/02/13 12:10:29;;;;;;;;;;;9.60;59.30;;;;;;5028034;28;19961;-74
2022/02/13 12:13:05;;;;;;;;;;;9.50;59.20;;;;;;5028943;28;19979;-78
2022/02/13 12:15:34;;;;;;;;;;;9.50;59.60;;;;;;5025873;28;19933;-74
2022/02/13 12:18:07;;;;;;;;;;;9.60;60.00;;;;;;5026499;28;20196;-74
2022/02/13 12:20:34;;;;;;;;;;;9.80;61.60;;;;;;5022209;28;19929;-75
2022/02/13 12:23:06;;;;;;;;;;;9.90;64.30;;;;;;5026986;28;22407;-75
2022/02/13 12:25:33;;;;;;;;;;;9.90;63.30;;;;;;5030705;28;19940;-75
2022/02/13 12:27:59;;;;;;;;;;;9.80;65.70;;;;;;5026810;28;20032;-75
2022/02/13 12:30:26;;;;;;;;;;;9.70;67.20;;;;;;5021925;28;20373;-74
2022/02/13 12:32:58;;;;;;;;;;;9.60;68.20;;;;;;5029937;28;20558;-74
2022/02/13 12:35:28;;;;;;;;;;;9.60;69.20;;;;;;5022560;28;19932;-74
2022/02/13 12:37:55;;;;;;;;;;;9.60;70.50;;;;;;5028789;28;19929;-75
2022/02/13 12:40:23;;;;;;;;;;;9.70;71.20;;;;;;5020617;28;19984;-76
2022/02/13 12:42:52;;;;;;;;;;;9.70;72.70;;;;;;5026438;28;19987;-75
2022/02/13 12:45:32;;;;;;;;;;;9.80;72.20;;;;;;5023533;28;20274;-74
2022/02/13 12:48:00;;;;;;;;;;;9.80;71.60;;;;;;5032934;28;19924;-75
2022/02/13 12:50:28;;;;;;;;;;;9.80;73.10;;;;;;5030693;28;19932;-74
2022/02/13 12:52:59;;;;;;;;;;;9.90;72.90;;;;;;5033248;28;19972;-75
2022/02/13 12:55:26;;;;;;;;;;;9.90;73.80;;;;;;5032994;28;20289;-73
2022/02/13 12:57:56;;;;;;;;;;;9.80;73.30;;;;;;5032322;28;19933;-75
2022/02/13 13:00:23;;;;;;;;;;;9.70;72.90;;;;;;5025656;28;19933;-74
2022/02/13 13:02:51;;;;;;;;;;;9.70;74.00;;;;;;5014292;28;20004;-75
2022/02/13 13:05:21;;;;;;;;;;;9.80;74.10;;;;;;5024237;28;19931;-75
2022/02/13 13:07:49;;;;;;;;;;;9.80;74.00;;;;;;5025979;28;19925;-74
2022/02/13 13:10:27;;;;;;;;;;;9.80;74.00;;;;;;5026862;28;19929;-74
2022/02/13 13:13:00;;;;;;;;;;;10.00;73.00;;;;;;5021800;28;19983;-73
2022/02/13 13:15:27;;;;;;;;;;;9.90;73.00;;;;;;5026066;28;19935;-74
2022/02/13 13:17:54;;;;;;;;;;;10.00;72.50;;;;;;5029275;28;20004;-74
2022/02/13 13:20:23;;;;;;;;;;;10.00;72.30;;;;;;5027626;28;22637;-74
2022/02/13 13:23:05;;;;;;;;;;;10.10;71.90;;;;;;5018826;28;20377;-74
2022/02/13 13:25:32;;;;;;;;;;;10.10;72.30;;;;;;5022893;28;20447;-75
2022/02/13 13:28:08;;;;;;;;;;;10.20;71.70;;;;;;5028272;28;19932;-73
2022/02/13 13:30:34;;;;;;;;;;;10.20;73.00;;;;;;5030307;28;19936;-74
2022/02/13 13:33:01;;;;;;;;;;;10.20;72.40;;;;;;5043587;28;19929;-74
2022/02/13 13:35:30;;;;;;;;;;;10.20;72.60;;;;;;5032722;28;19925;-70
2022/02/13 13:37:57;;;;;;;;;;;10.20;72.60;;;;;;5035124;28;20015;-70
2022/02/13 13:40:24;;;;;;;;;;;10.20;72.40;;;;;;5033736;28;19933;-70
2022/02/13 13:43:03;;;;;;;;;;;10.10;71.20;;;;;;5034386;28;19944;-71
2022/02/13 13:45:31;;;;;;;;;;;10.10;70.50;;;;;;5035647;28;19933;-70
2022/02/13 13:47:58;;;;;;;;;;;10.10;70.00;;;;;;5032533;28;19936;-70
2022/02/13 13:50:26;;;;;;;;;;;10.00;70.00;;;;;;5035670;28;19925;-70
2022/02/13 13:52:55;;;;;;;;;;;10.00;70.40;;;;;;5026329;28;20175;-70
2022/02/13 13:55:21;;;;;;;;;;;10.00;70.50;;;;;;5035784;28;19925;-69
2022/02/13 13:57:48;;;;;;;;;;;9.90;72.40;;;;;;5032273;28;19926;-71
2022/02/13 14:00:16;;;;;;;;;;;9.90;72.70;;;;;;5035026;28;20279;-70
2022/02/13 14:02:46;;;;;;;;;;;10.00;72.00;;;;;;5025311;28;19929;-70
2022/02/13 14:05:13;;;;;;;;;;;10.10;71.60;;;;;;5035022;28;19925;-70
2022/02/13 14:07:40;;;;;;;;;;;10.10;71.70;;;;;;5029780;28;20339;-70
2022/02/13 14:10:08;;;;;;;;;;;10.10;71.90;;;;;;5037736;28;20684;-70
2022/02/13 14:12:35;;;;;;;;;;;10.20;71.20;;;;;;5028233;28;19925;-70
2022/02/13 14:15:02;;;;;;;;;;;10.20;68.60;;;;;;5038430;28;20303;-70
2022/02/13 14:17:29;;;;;;;;;;;10.20;68.00;;;;;;5045804;28;20024;-69
2022/02/13 14:19:55;;;;;;;;;;;10.20;68.00;;;;;;5037627;28;20043;-70
2022/02/13 14:22:22;;;;;;;;;;;10.30;67.50;;;;;;5033492;28;19930;-69
2022/02/13 14:24:49;;;;;;;;;;;10.20;65.80;;;;;;5035713;28;19948;-70
2022/02/13 14:27:17;;;;;;;;;;;10.20;66.00;;;;;;5041681;28;19924;-70
2022/02/13 14:29:43;;;;;;;;;;;10.10;65.70;;;;;;5021434;28;20367;-69
2022/02/13 14:32:10;;;;;;;;;;;10.10;64.50;;;;;;5035405;28;19979;-69
2022/02/13 14:34:38;;;;;;;;;;;10.00;64.20;;;;;;5031905;28;19925;-69